Details From KSRQ - Sarasota Bradenton Intl
To KEYW - Key West Intl
Flight Number -
Tags Decoded
Created
Modified
Stats Distance 193 nm / 358 km
Max Altitude 0 ft / 0 m
Waypoints 8
Social Downloads 6
Likes 0
Share VATSIM

Download

Looking for another format? Having issues loading an existing format? Contact us
Advertisement - Login to hide

Notes

Decoded

Route

KSRQ VIOLA MARCI STING CHETS ATNAW BUSBY KEYW

ID Type Via Altitude Latitude Longitude Leg Dist Tot Dist Heading (true) Name
O KSRQ APT - 0 ft / 0 m 27.38998˚ -82.55765˚ - 0 nm - -
VIOLA FIX - 0 ft / 0 m 26.95094˚ -82.33236˚ 28 nm 28 nm 155° / 156° -
MARCI FIX - 0 ft / 0 m 25.89107˚ -81.78399˚ 70 nm 99 nm 155° / 155° -
STING FIX - 0 ft / 0 m 24.88158˚ -81.79631˚ 60 nm 159 nm 181° / 181° -
CHETS FIX - 0 ft / 0 m 24.63753˚ -81.96894˚ 17 nm 177 nm 213° / 213° -
ATNAW FIX - 0 ft / 0 m 24.55392˚ -81.96783˚ 5 nm 182 nm 179° / 179° -
BUSBY FIX - 0 ft / 0 m 24.55522˚ -81.84967˚ 6 nm 188 nm 89° / 89° -
O KEYW APT - 0 ft / 0 m 24.55605˚ -81.76677˚ 4 nm 193 nm 89° / 89° -

Altitude Profile

Advertisement - Login to hide

Weather


0- 5 10 15 20 25 30 35+ Temperature / ° C

Clouds and Precipitation
Forecast for 2017-12-16 06:00 UTC. Updated 2 hours ago

Ground ~20,000 ft ~40,000 ft Winds

KSRQ

Details ICAO KSRQ (SRQ)
Name Sarasota Bradenton Intl
Region United States
Timezone America/New_York (UTC-5.0)
Stats Elevation 31 ft / 9 m (AMSL)
Location 27.395443° -82.554035°
Runways 2
Magnetic Variation 5.460° W

METAR

KSRQ 160653Z AUTO 16006KT 10SM FEW046 16/16 A3015 RMK AO2 SLP208 T01610156

Decode

TAF

KSRQ 160523Z 1606/1706 VRB03KT P6SM FEW250 FM160900 VRB04KT 6SM BR SCT020 SCT250 FM161400 05007KT P6SM SCT040 SCT250 FM162300 05006KT P6SM FEW250

Decode

Departure Runways

ID Width Length Bearing (true) Bearing (mag) Surface Threshold Offset Overrun Length
04 150 ft / 46 m 5,019 ft / 1,530 m 37.96° 43.42° Asphalt 0 ft / 0 m 0 ft / 0 m
14 150 ft / 46 m 9,510 ft / 2,899 m 134.53° 139.99° Asphalt 1,350 ft / 411 m 0 ft / 0 m
22 150 ft / 46 m 5,019 ft / 1,530 m 217.96° 223.42° Asphalt 0 ft / 0 m 0 ft / 0 m
32 150 ft / 46 m 9,510 ft / 2,899 m 314.54° 320.00° Asphalt 1,147 ft / 350 m 0 ft / 0 m

KEYW

Details ICAO KEYW (EYW)
Name Key West Intl
Region United States
Timezone America/New_York (UTC-5.0)
Stats Elevation 2 ft / 1 m (AMSL)
Location 24.556124° -81.759546°
Runways 1
Magnetic Variation 5.545° W

METAR

KEYW 160653Z AUTO 03004KT 10SM CLR 19/18 A3016 RMK AO2 SLP212 T01890178

Decode

TAF

KEYW 160521Z 1606/1706 04005KT P6SM SKC FM161500 06010KT P6SM FEW250 FM161800 07011KT P6SM FEW028 SCT250 FM162100 08011KT P6SM SCT028 BKN250

Decode

Destination Runways

ID Width Length Bearing (true) Bearing (mag) Surface Threshold Offset Overrun Length
09 100 ft / 30 m 4,794 ft / 1,461 m 89.38° 94.93° Asphalt 151 ft / 46 m 0 ft / 0 m
27 100 ft / 30 m 4,794 ft / 1,461 m 269.39° 274.94° Asphalt 151 ft / 46 m 0 ft / 0 m

Popular Alternatives